sensor_id;sensor_type;location;lat;lon;timestamp;temperature;humidity
1778;DHT22;71547;50.146;8.174;2024-02-21T00:02:05;6.90;99.90
1778;DHT22;71547;50.146;8.174;2024-02-21T00:04:32;6.90;99.90
1778;DHT22;71547;50.146;8.174;2024-02-21T00:06:59;6.90;99.90
1778;DHT22;71547;50.146;8.174;2024-02-21T00:09:27;6.90;99.90
1778;DHT22;71547;50.146;8.174;2024-02-21T00:11:54;6.90;99.90
1778;DHT22;71547;50.146;8.174;2024-02-21T00:14:21;6.90;99.90
1778;DHT22;71547;50.146;8.174;2024-02-21T00:16:52;7.00;99.90
1778;DHT22;71547;50.146;8.174;2024-02-21T00:19:19;7.00;99.90
1778;DHT22;71547;50.146;8.174;2024-02-21T00:21:46;6.90;99.90
1778;DHT22;71547;50.146;8.174;2024-02-21T00:24:13;6.90;99.90
1778;DHT22;71547;50.146;8.174;2024-02-21T00:26:40;6.90;99.90
1778;DHT22;71547;50.146;8.174;2024-02-21T00:29:07;6.90;99.90
1778;DHT22;71547;50.146;8.174;2024-02-21T00:31:35;6.90;99.90
1778;DHT22;71547;50.146;8.174;2024-02-21T00:34:03;7.00;99.90
1778;DHT22;71547;50.146;8.174;2024-02-21T00:36:30;6.90;99.90
1778;DHT22;71547;50.146;8.174;2024-02-21T00:38:57;7.00;99.90
1778;DHT22;71547;50.146;8.174;2024-02-21T00:41:25;7.00;99.90
1778;DHT22;71547;50.146;8.174;2024-02-21T00:43:52;6.90;99.90
1778;DHT22;71547;50.146;8.174;2024-02-21T00:46:19;6.90;99.90
1778;DHT22;71547;50.146;8.174;2024-02-21T00:48:46;6.80;99.90
1778;DHT22;71547;50.146;8.174;2024-02-21T00:51:15;6.80;99.90
1778;DHT22;71547;50.146;8.174;2024-02-21T00:53:42;6.80;99.90
1778;DHT22;71547;50.146;8.174;2024-02-21T00:56:09;6.80;99.90
1778;DHT22;71547;50.146;8.174;2024-02-21T00:58:36;6.80;99.90
1778;DHT22;71547;50.146;8.174;2024-02-21T01:01:03;6.80;99.90
1778;DHT22;71547;50.146;8.174;2024-02-21T01:03:30;6.80;99.90
1778;DHT22;71547;50.146;8.174;2024-02-21T01:05:58;6.80;99.90
1778;DHT22;71547;50.146;8.174;2024-02-21T01:08:26;6.80;99.90
1778;DHT22;71547;50.146;8.174;2024-02-21T01:10:53;6.80;99.90
1778;DHT22;71547;50.146;8.174;2024-02-21T01:13:20;6.80;99.90
1778;DHT22;71547;50.146;8.174;2024-02-21T01:15:48;6.80;99.90
1778;DHT22;71547;50.146;8.174;2024-02-21T01:18:15;6.70;99.90
1778;DHT22;71547;50.146;8.174;2024-02-21T01:20:42;6.80;99.90
1778;DHT22;71547;50.146;8.174;2024-02-21T01:23:09;6.70;99.90
1778;DHT22;71547;50.146;8.174;2024-02-21T01:25:37;6.70;99.90
1778;DHT22;71547;50.146;8.174;2024-02-21T01:28:05;6.80;99.90
1778;DHT22;71547;50.146;8.174;2024-02-21T01:30:32;6.80;99.90
1778;DHT22;71547;50.146;8.174;2024-02-21T01:32:59;6.70;99.90
1778;DHT22;71547;50.146;8.174;2024-02-21T01:35:26;6.80;99.90
1778;DHT22;71547;50.146;8.174;2024-02-21T01:37:53;6.80;99.90
1778;DHT22;71547;50.146;8.174;2024-02-21T01:40:20;6.80;99.90
1778;DHT22;71547;50.146;8.174;2024-02-21T01:42:49;6.80;99.90
1778;DHT22;71547;50.146;8.174;2024-02-21T01:45:16;6.80;99.90
1778;DHT22;71547;50.146;8.174;2024-02-21T01:47:45;6.80;99.90
1778;DHT22;71547;50.146;8.174;2024-02-21T01:50:12;6.70;99.90
1778;DHT22;71547;50.146;8.174;2024-02-21T01:52:42;6.70;99.90
1778;DHT22;71547;50.146;8.174;2024-02-21T01:55:10;6.70;99.90
1778;DHT22;71547;50.146;8.174;2024-02-21T01:57:40;6.70;99.90
1778;DHT22;71547;50.146;8.174;2024-02-21T02:00:10;6.70;99.90
1778;DHT22;71547;50.146;8.174;2024-02-21T02:02:40;6.70;99.90
1778;DHT22;71547;50.146;8.174;2024-02-21T02:05:08;6.70;99.90
1778;DHT22;71547;50.146;8.174;2024-02-21T02:07:36;6.70;99.90
1778;DHT22;71547;50.146;8.174;2024-02-21T02:10:04;6.60;99.90
1778;DHT22;71547;50.146;8.174;2024-02-21T02:12:31;6.60;99.90
1778;DHT22;71547;50.146;8.174;2024-02-21T02:15:00;6.60;99.90
1778;DHT22;71547;50.146;8.174;2024-02-21T02:17:28;6.60;99.90
1778;DHT22;71547;50.146;8.174;2024-02-21T02:19:55;6.60;99.90
1778;DHT22;71547;50.146;8.174;2024-02-21T02:22:28;6.60;99.90
1778;DHT22;71547;50.146;8.174;2024-02-21T02:24:57;6.60;99.90
1778;DHT22;71547;50.146;8.174;2024-02-21T02:27:25;6.50;99.90
1778;DHT22;71547;50.146;8.174;2024-02-21T02:29:52;6.50;99.90
1778;DHT22;71547;50.146;8.174;2024-02-21T02:32:19;6.50;99.90
1778;DHT22;71547;50.146;8.174;2024-02-21T02:34:46;6.40;99.90
1778;DHT22;71547;50.146;8.174;2024-02-21T02:37:13;6.40;99.90
1778;DHT22;71547;50.146;8.174;2024-02-21T02:39:42;6.40;99.90
1778;DHT22;71547;50.146;8.174;2024-02-21T02:42:10;6.40;99.90
1778;DHT22;71547;50.146;8.174;2024-02-21T02:44:37;6.40;99.90
1778;DHT22;71547;50.146;8.174;2024-02-21T02:47:04;6.50;99.90
1778;DHT22;71547;50.146;8.174;2024-02-21T02:49:31;6.50;99.90
1778;DHT22;71547;50.146;8.174;2024-02-21T02:51:59;6.50;99.90
1778;DHT22;71547;50.146;8.174;2024-02-21T02:54:26;6.50;99.90
1778;DHT22;71547;50.146;8.174;2024-02-21T02:56:53;6.50;99.90
1778;DHT22;71547;50.146;8.174;2024-02-21T02:59:21;6.50;99.90
1778;DHT22;71547;50.146;8.174;2024-02-21T03:01:48;6.60;99.90
1778;DHT22;71547;50.146;8.174;2024-02-21T03:04:16;6.60;99.90
1778;DHT22;71547;50.146;8.174;2024-02-21T03:06:43;6.60;99.90
1778;DHT22;71547;50.146;8.174;2024-02-21T03:09:10;6.60;99.90
1778;DHT22;71547;50.146;8.174;2024-02-21T03:11:37;6.60;99.90
1778;DHT22;71547;50.146;8.174;2024-02-21T03:14:05;6.60;99.90
1778;DHT22;71547;50.146;8.174;2024-02-21T03:16:34;6.60;99.90
1778;DHT22;71547;50.146;8.174;2024-02-21T03:19:01;6.60;99.90
1778;DHT22;71547;50.146;8.174;2024-02-21T03:21:28;6.60;99.90
1778;DHT22;71547;50.146;8.174;2024-02-21T03:23:55;6.60;99.90
1778;DHT22;71547;50.146;8.174;2024-02-21T03:26:22;6.60;99.90
1778;DHT22;71547;50.146;8.174;2024-02-21T03:28:49;6.70;99.90
1778;DHT22;71547;50.146;8.174;2024-02-21T03:31:16;6.60;99.90
1778;DHT22;71547;50.146;8.174;2024-02-21T03:33:45;6.60;99.90
1778;DHT22;71547;50.146;8.174;2024-02-21T03:36:15;6.60;99.90
1778;DHT22;71547;50.146;8.174;2024-02-21T03:38:43;6.50;99.90
1778;DHT22;71547;50.146;8.174;2024-02-21T03:41:11;6.50;99.90
1778;DHT22;71547;50.146;8.174;2024-02-21T03:43:39;6.60;99.90
1778;DHT22;71547;50.146;8.174;2024-02-21T03:46:06;6.60;99.90
1778;DHT22;71547;50.146;8.174;2024-02-21T03:48:34;6.60;99.90
1778;DHT22;71547;50.146;8.174;2024-02-21T03:51:02;6.60;99.90
1778;DHT22;71547;50.146;8.174;2024-02-21T03:53:30;6.60;99.90
1778;DHT22;71547;50.146;8.174;2024-02-21T03:55:57;6.60;99.90
1778;DHT22;71547;50.146;8.174;2024-02-21T03:58:29;6.60;99.90
1778;DHT22;71547;50.146;8.174;2024-02-21T04:00:56;6.60;99.90
1778;DHT22;71547;50.146;8.174;2024-02-21T04:03:23;6.60;99.90
1778;DHT22;71547;50.146;8.174;2024-02-21T04:06:09;6.60;99.90
1778;DHT22;71547;50.146;8.174;2024-02-21T04:08:36;6.60;99.90
1778;DHT22;71547;50.146;8.174;2024-02-21T04:11:03;6.50;99.90
1778;DHT22;71547;50.146;8.174;2024-02-21T04:13:31;6.50;99.90
1778;DHT22;71547;50.146;8.174;2024-02-21T04:15:58;6.40;99.90
1778;DHT22;71547;50.146;8.174;2024-02-21T04:18:25;6.50;99.90
1778;DHT22;71547;50.146;8.174;2024-02-21T04:20:52;6.50;99.90
1778;DHT22;71547;50.146;8.174;2024-02-21T04:23:23;6.40;99.90
1778;DHT22;71547;50.146;8.174;2024-02-21T04:25:50;6.40;99.90
1778;DHT22;71547;50.146;8.174;2024-02-21T04:28:17;6.40;99.90
1778;DHT22;71547;50.146;8.174;2024-02-21T04:30:45;6.40;99.90
1778;DHT22;71547;50.146;8.174;2024-02-21T04:33:12;6.40;99.90
1778;DHT22;71547;50.146;8.174;2024-02-21T04:35:39;6.40;99.90
1778;DHT22;71547;50.146;8.174;2024-02-21T04:38:06;6.30;99.90
1778;DHT22;71547;50.146;8.174;2024-02-21T04:40:35;6.30;99.90
1778;DHT22;71547;50.146;8.174;2024-02-21T04:43:03;6.30;99.90
1778;DHT22;71547;50.146;8.174;2024-02-21T04:45:30;6.30;99.90
1778;DHT22;71547;50.146;8.174;2024-02-21T04:47:57;6.20;99.90
1778;DHT22;71547;50.146;8.174;2024-02-21T04:50:24;6.20;99.90
1778;DHT22;71547;50.146;8.174;2024-02-21T04:52:51;6.20;99.90
1778;DHT22;71547;50.146;8.174;2024-02-21T04:55:18;6.10;99.90
1778;DHT22;71547;50.146;8.174;2024-02-21T04:57:47;6.10;99.90
1778;DHT22;71547;50.146;8.174;2024-02-21T05:00:15;6.10;99.90
1778;DHT22;71547;50.146;8.174;2024-02-21T05:02:42;6.00;99.90
1778;DHT22;71547;50.146;8.174;2024-02-21T05:05:09;6.00;99.90
1778;DHT22;71547;50.146;8.174;2024-02-21T05:07:36;6.00;99.90
1778;DHT22;71547;50.146;8.174;2024-02-21T05:10:07;6.00;99.90
1778;DHT22;71547;50.146;8.174;2024-02-21T05:12:36;5.90;99.90
1778;DHT22;71547;50.146;8.174;2024-02-21T05:15:06;6.00;99.90
1778;DHT22;71547;50.146;8.174;2024-02-21T05:17:33;5.90;99.90
1778;DHT22;71547;50.146;8.174;2024-02-21T05:20:00;6.00;99.90
1778;DHT22;71547;50.146;8.174;2024-02-21T05:22:28;6.00;99.90
1778;DHT22;71547;50.146;8.174;2024-02-21T05:24:55;6.10;99.90
1778;DHT22;71547;50.146;8.174;2024-02-21T05:27:22;6.10;99.90
1778;DHT22;71547;50.146;8.174;2024-02-21T05:29:49;6.10;99.90
1778;DHT22;71547;50.146;8.174;2024-02-21T05:32:18;6.10;99.90
1778;DHT22;71547;50.146;8.174;2024-02-21T05:34:48;6.10;99.90
1778;DHT22;71547;50.146;8.174;2024-02-21T05:37:16;6.10;99.90
1778;DHT22;71547;50.146;8.174;2024-02-21T05:39:44;6.00;99.90
1778;DHT22;71547;50.146;8.174;2024-02-21T05:42:11;6.00;99.90
1778;DHT22;71547;50.146;8.174;2024-02-21T05:44:38;6.00;99.90
1778;DHT22;71547;50.146;8.174;2024-02-21T05:47:05;6.00;99.90
1778;DHT22;71547;50.146;8.174;2024-02-21T05:49:39;5.90;99.90
1778;DHT22;71547;50.146;8.174;2024-02-21T05:52:06;5.90;99.90
1778;DHT22;71547;50.146;8.174;2024-02-21T05:54:33;5.80;99.90
1778;DHT22;71547;50.146;8.174;2024-02-21T05:57:01;5.80;99.90
1778;DHT22;71547;50.146;8.174;2024-02-21T05:59:28;5.80;99.90
1778;DHT22;71547;50.146;8.174;2024-02-21T06:01:57;5.90;99.90
1778;DHT22;71547;50.146;8.174;2024-02-21T06:04:25;5.90;99.90
1778;DHT22;71547;50.146;8.174;2024-02-21T06:06:54;5.90;99.90
1778;DHT22;71547;50.146;8.174;2024-02-21T06:09:21;5.80;99.90
1778;DHT22;71547;50.146;8.174;2024-02-21T06:11:56;5.80;99.90
1778;DHT22;71547;50.146;8.174;2024-02-21T06:14:24;5.70;99.90
1778;DHT22;71547;50.146;8.174;2024-02-21T06:16:51;5.70;99.90
1778;DHT22;71547;50.146;8.174;2024-02-21T06:19:18;5.70;99.90
1778;DHT22;71547;50.146;8.174;2024-02-21T06:21:46;5.70;99.90
1778;DHT22;71547;50.146;8.174;2024-02-21T06:24:14;5.70;99.90
1778;DHT22;71547;50.146;8.174;2024-02-21T06:26:41;5.60;99.90
1778;DHT22;71547;50.146;8.174;2024-02-21T06:29:09;5.60;99.90
1778;DHT22;71547;50.146;8.174;2024-02-21T06:31:36;5.60;99.90
1778;DHT22;71547;50.146;8.174;2024-02-21T06:34:03;5.60;99.90
1778;DHT22;71547;50.146;8.174;2024-02-21T06:36:31;5.60;99.90
1778;DHT22;71547;50.146;8.174;2024-02-21T06:38:58;5.70;99.90
1778;DHT22;71547;50.146;8.174;2024-02-21T06:41:27;5.60;99.90
1778;DHT22;71547;50.146;8.174;2024-02-21T06:43:55;5.60;99.90
1778;DHT22;71547;50.146;8.174;2024-02-21T06:46:23;5.60;99.90
1778;DHT22;71547;50.146;8.174;2024-02-21T06:48:55;5.60;99.90
1778;DHT22;71547;50.146;8.174;2024-02-21T06:51:30;5.60;99.90
1778;DHT22;71547;50.146;8.174;2024-02-21T06:53:57;5.60;99.90
1778;DHT22;71547;50.146;8.174;2024-02-21T06:56:27;5.60;99.90
1778;DHT22;71547;50.146;8.174;2024-02-21T06:59:00;5.60;99.90
1778;DHT22;71547;50.146;8.174;2024-02-21T07:01:28;5.60;99.90
1778;DHT22;71547;50.146;8.174;2024-02-21T07:03:56;5.60;99.90
1778;DHT22;71547;50.146;8.174;2024-02-21T07:06:24;5.50;99.90
1778;DHT22;71547;50.146;8.174;2024-02-21T07:08:51;5.60;99.90
1778;DHT22;71547;50.146;8.174;2024-02-21T07:11:19;5.60;99.90
1778;DHT22;71547;50.146;8.174;2024-02-21T07:13:50;5.60;99.90
1778;DHT22;71547;50.146;8.174;2024-02-21T07:16:19;5.70;99.90
1778;DHT22;71547;50.146;8.174;2024-02-21T07:18:46;5.70;99.90
1778;DHT22;71547;50.146;8.174;2024-02-21T07:21:13;5.70;99.90
1778;DHT22;71547;50.146;8.174;2024-02-21T07:23:42;5.70;99.90
1778;DHT22;71547;50.146;8.174;2024-02-21T07:26:09;5.70;99.90
1778;DHT22;71547;50.146;8.174;2024-02-21T07:28:37;5.70;99.90
1778;DHT22;71547;50.146;8.174;2024-02-21T07:31:06;5.80;99.90
1778;DHT22;71547;50.146;8.174;2024-02-21T07:33:44;5.80;99.90
1778;DHT22;71547;50.146;8.174;2024-02-21T07:36:11;5.80;99.90
1778;DHT22;71547;50.146;8.174;2024-02-21T07:38:51;5.80;99.90
1778;DHT22;71547;50.146;8.174;2024-02-21T07:41:32;5.90;99.90
1778;DHT22;71547;50.146;8.174;2024-02-21T07:44:01;5.90;99.90
1778;DHT22;71547;50.146;8.174;2024-02-21T07:46:31;6.00;99.90
1778;DHT22;71547;50.146;8.174;2024-02-21T07:49:00;5.90;99.90
1778;DHT22;71547;50.146;8.174;2024-02-21T07:51:29;6.00;99.90
1778;DHT22;71547;50.146;8.174;2024-02-21T07:53:56;6.00;99.90
1778;DHT22;71547;50.146;8.174;2024-02-21T07:56:24;6.10;99.90
1778;DHT22;71547;50.146;8.174;2024-02-21T07:58:54;6.10;99.90
1778;DHT22;71547;50.146;8.174;2024-02-21T08:01:21;6.20;99.90
1778;DHT22;71547;50.146;8.174;2024-02-21T08:03:50;6.20;99.90
1778;DHT22;71547;50.146;8.174;2024-02-21T08:06:17;6.20;99.90
1778;DHT22;71547;50.146;8.174;2024-02-21T08:08:45;6.20;99.90
1778;DHT22;71547;50.146;8.174;2024-02-21T08:11:12;6.20;99.90
1778;DHT22;71547;50.146;8.174;2024-02-21T08:13:39;6.30;99.90
1778;DHT22;71547;50.146;8.174;2024-02-21T08:16:07;6.30;99.90
1778;DHT22;71547;50.146;8.174;2024-02-21T08:18:34;6.30;99.90
1778;DHT22;71547;50.146;8.174;2024-02-21T08:21:06;6.30;99.90
1778;DHT22;71547;50.146;8.174;2024-02-21T08:23:33;6.20;99.90
1778;DHT22;71547;50.146;8.174;2024-02-21T08:26:03;6.30;99.90
1778;DHT22;71547;50.146;8.174;2024-02-21T08:28:54;6.30;99.90
1778;DHT22;71547;50.146;8.174;2024-02-21T08:31:33;6.40;99.90
1778;DHT22;71547;50.146;8.174;2024-02-21T08:34:01;6.40;99.90
1778;DHT22;71547;50.146;8.174;2024-02-21T08:36:32;6.40;99.90
1778;DHT22;71547;50.146;8.174;2024-02-21T08:39:00;6.50;99.90
1778;DHT22;71547;50.146;8.174;2024-02-21T08:41:27;6.50;99.90
1778;DHT22;71547;50.146;8.174;2024-02-21T08:44:16;6.50;99.90
1778;DHT22;71547;50.146;8.174;2024-02-21T08:46:43;6.60;99.90
1778;DHT22;71547;50.146;8.174;2024-02-21T08:49:11;6.60;99.90
1778;DHT22;71547;50.146;8.174;2024-02-21T08:51:39;6.60;99.90
1778;DHT22;71547;50.146;8.174;2024-02-21T08:54:06;6.50;99.90
1778;DHT22;71547;50.146;8.174;2024-02-21T08:56:34;6.60;99.90
1778;DHT22;71547;50.146;8.174;2024-02-21T08:59:02;6.70;99.90
1778;DHT22;71547;50.146;8.174;2024-02-21T09:01:29;6.70;99.90
1778;DHT22;71547;50.146;8.174;2024-02-21T09:03:56;6.80;99.90
1778;DHT22;71547;50.146;8.174;2024-02-21T09:06:24;6.80;99.90
1778;DHT22;71547;50.146;8.174;2024-02-21T09:08:52;6.90;99.90
1778;DHT22;71547;50.146;8.174;2024-02-21T09:11:19;7.00;99.90
1778;DHT22;71547;50.146;8.174;2024-02-21T09:13:47;7.00;99.90
1778;DHT22;71547;50.146;8.174;2024-02-21T09:16:14;6.90;99.90
1778;DHT22;71547;50.146;8.174;2024-02-21T09:18:41;7.00;99.90
1778;DHT22;71547;50.146;8.174;2024-02-21T09:21:09;7.00;99.90
1778;DHT22;71547;50.146;8.174;2024-02-21T09:23:38;7.10;99.90
1778;DHT22;71547;50.146;8.174;2024-02-21T09:26:07;7.10;99.90
1778;DHT22;71547;50.146;8.174;2024-02-21T09:28:37;7.10;99.90
1778;DHT22;71547;50.146;8.174;2024-02-21T09:31:04;7.10;99.90
1778;DHT22;71547;50.146;8.174;2024-02-21T09:33:31;7.10;99.90
1778;DHT22;71547;50.146;8.174;2024-02-21T09:35:59;7.30;99.90
1778;DHT22;71547;50.146;8.174;2024-02-21T09:38:26;7.30;99.90
1778;DHT22;71547;50.146;8.174;2024-02-21T09:40:59;7.30;99.90
1778;DHT22;71547;50.146;8.174;2024-02-21T09:43:33;7.20;99.90
1778;DHT22;71547;50.146;8.174;2024-02-21T09:46:01;7.20;99.90
1778;DHT22;71547;50.146;8.174;2024-02-21T09:48:38;7.30;99.90
1778;DHT22;71547;50.146;8.174;2024-02-21T09:51:12;7.20;99.90
1778;DHT22;71547;50.146;8.174;2024-02-21T09:53:42;7.20;99.90
1778;DHT22;71547;50.146;8.174;2024-02-21T09:56:24;7.30;99.90
1778;DHT22;71547;50.146;8.174;2024-02-21T09:58:52;7.30;99.90
1778;DHT22;71547;50.146;8.174;2024-02-21T10:01:19;7.40;99.90
1778;DHT22;71547;50.146;8.174;2024-02-21T10:04:00;7.40;99.90
1778;DHT22;71547;50.146;8.174;2024-02-21T10:06:29;7.50;99.90
1778;DHT22;71547;50.146;8.174;2024-02-21T10:08:57;7.50;99.90
1778;DHT22;71547;50.146;8.174;2024-02-21T10:11:24;7.70;99.90
1778;DHT22;71547;50.146;8.174;2024-02-21T10:14:04;7.70;99.90
1778;DHT22;71547;50.146;8.174;2024-02-21T10:16:34;7.70;99.90
1778;DHT22;71547;50.146;8.174;2024-02-21T10:19:01;7.80;99.90
1778;DHT22;71547;50.146;8.174;2024-02-21T10:21:30;7.90;99.90
1778;DHT22;71547;50.146;8.174;2024-02-21T10:23:58;7.90;99.90
1778;DHT22;71547;50.146;8.174;2024-02-21T10:26:25;7.90;99.90
1778;DHT22;71547;50.146;8.174;2024-02-21T10:28:52;7.90;99.90
1778;DHT22;71547;50.146;8.174;2024-02-21T10:31:23;7.90;99.90
1778;DHT22;71547;50.146;8.174;2024-02-21T10:33:56;8.00;99.90
1778;DHT22;71547;50.146;8.174;2024-02-21T10:36:31;8.00;99.90
1778;DHT22;71547;50.146;8.174;2024-02-21T10:38:58;8.00;99.90
1778;DHT22;71547;50.146;8.174;2024-02-21T10:41:25;8.00;99.90
1778;DHT22;71547;50.146;8.174;2024-02-21T10:43:56;8.00;99.90
1778;DHT22;71547;50.146;8.174;2024-02-21T10:46:26;8.10;99.90
1778;DHT22;71547;50.146;8.174;2024-02-21T10:49:10;8.10;99.90
1778;DHT22;71547;50.146;8.174;2024-02-21T10:51:43;8.20;99.90
1778;DHT22;71547;50.146;8.174;2024-02-21T10:54:24;8.20;99.90
1778;DHT22;71547;50.146;8.174;2024-02-21T10:57:02;8.20;99.90
1778;DHT22;71547;50.146;8.174;2024-02-21T10:59:38;8.30;99.90
1778;DHT22;71547;50.146;8.174;2024-02-21T11:02:33;8.30;99.90
1778;DHT22;71547;50.146;8.174;2024-02-21T11:05:02;8.40;99.90
1778;DHT22;71547;50.146;8.174;2024-02-21T11:07:37;8.30;99.90
1778;DHT22;71547;50.146;8.174;2024-02-21T11:10:05;8.40;99.90
1778;DHT22;71547;50.146;8.174;2024-02-21T11:12:46;8.40;99.90
1778;DHT22;71547;50.146;8.174;2024-02-21T11:15:13;8.40;99.90
1778;DHT22;71547;50.146;8.174;2024-02-21T11:17:53;8.50;99.90
1778;DHT22;71547;50.146;8.174;2024-02-21T11:20:34;8.60;99.90
1778;DHT22;71547;50.146;8.174;2024-02-21T11:23:01;8.50;99.90
1778;DHT22;71547;50.146;8.174;2024-02-21T11:25:30;8.50;99.90
1778;DHT22;71547;50.146;8.174;2024-02-21T11:28:02;8.60;99.90
1778;DHT22;71547;50.146;8.174;2024-02-21T11:30:30;8.50;99.90
1778;DHT22;71547;50.146;8.174;2024-02-21T11:33:02;8.60;99.90
1778;DHT22;71547;50.146;8.174;2024-02-21T11:35:34;8.60;99.90
1778;DHT22;71547;50.146;8.174;2024-02-21T11:38:08;8.50;99.90
1778;DHT22;71547;50.146;8.174;2024-02-21T11:40:38;8.60;99.90
1778;DHT22;71547;50.146;8.174;2024-02-21T11:43:07;8.60;99.90
1778;DHT22;71547;50.146;8.174;2024-02-21T11:45:34;8.60;99.90
1778;DHT22;71547;50.146;8.174;2024-02-21T11:48:04;8.60;99.90
1778;DHT22;71547;50.146;8.174;2024-02-21T11:50:34;8.60;99.90
1778;DHT22;71547;50.146;8.174;2024-02-21T11:53:02;8.60;99.90
1778;DHT22;71547;50.146;8.174;2024-02-21T11:55:30;8.60;99.90
1778;DHT22;71547;50.146;8.174;2024-02-21T11:57:58;8.60;99.90
1778;DHT22;71547;50.146;8.174;2024-02-21T12:00:26;8.60;99.90
1778;DHT22;71547;50.146;8.174;2024-02-21T12:02:53;8.70;99.90
1778;DHT22;71547;50.146;8.174;2024-02-21T12:05:25;8.70;99.90
1778;DHT22;71547;50.146;8.174;2024-02-21T12:07:56;8.70;99.90
1778;DHT22;71547;50.146;8.174;2024-02-21T12:10:26;8.60;99.90
1778;DHT22;71547;50.146;8.174;2024-02-21T12:13:05;8.70;99.90
1778;DHT22;71547;50.146;8.174;2024-02-21T12:15:34;8.70;99.90
1778;DHT22;71547;50.146;8.174;2024-02-21T12:18:02;8.80;99.90
1778;DHT22;71547;50.146;8.174;2024-02-21T12:20:32;8.80;99.90
1778;DHT22;71547;50.146;8.174;2024-02-21T12:23:00;8.80;99.90
1778;DHT22;71547;50.146;8.174;2024-02-21T12:25:28;8.90;99.90
1778;DHT22;71547;50.146;8.174;2024-02-21T12:27:56;8.90;99.90
1778;DHT22;71547;50.146;8.174;2024-02-21T12:30:23;8.90;99.90
1778;DHT22;71547;50.146;8.174;2024-02-21T12:32:50;8.90;99.90
1778;DHT22;71547;50.146;8.174;2024-02-21T12:35:18;8.90;99.90
1778;DHT22;71547;50.146;8.174;2024-02-21T12:37:47;8.90;99.90
1778;DHT22;71547;50.146;8.174;2024-02-21T12:40:14;8.80;99.90
1778;DHT22;71547;50.146;8.174;2024-02-21T12:42:42;8.70;99.90
1778;DHT22;71547;50.146;8.174;2024-02-21T12:45:12;8.70;99.90
1778;DHT22;71547;50.146;8.174;2024-02-21T12:47:43;8.70;99.90
1778;DHT22;71547;50.146;8.174;2024-02-21T12:50:10;8.70;99.90
1778;DHT22;71547;50.146;8.174;2024-02-21T12:52:37;8.70;99.90
1778;DHT22;71547;50.146;8.174;2024-02-21T12:55:07;8.70;99.90
1778;DHT22;71547;50.146;8.174;2024-02-21T12:57:37;8.80;99.90
1778;DHT22;71547;50.146;8.174;2024-02-21T13:00:05;8.70;99.90
1778;DHT22;71547;50.146;8.174;2024-02-21T13:02:35;8.70;99.90
1778;DHT22;71547;50.146;8.174;2024-02-21T13:05:03;8.70;99.90
1778;DHT22;71547;50.146;8.174;2024-02-21T13:07:32;8.70;99.90
1778;DHT22;71547;50.146;8.174;2024-02-21T13:09:59;8.80;99.90
1778;DHT22;71547;50.146;8.174;2024-02-21T13:12:28;8.70;99.90
1778;DHT22;71547;50.146;8.174;2024-02-21T13:15:03;8.70;99.90
1778;DHT22;71547;50.146;8.174;2024-02-21T13:17:31;8.70;99.90
1778;DHT22;71547;50.146;8.174;2024-02-21T13:20:00;8.80;99.90
1778;DHT22;71547;50.146;8.174;2024-02-21T13:22:27;8.80;99.90
1778;DHT22;71547;50.146;8.174;2024-02-21T13:24:54;8.80;99.90
1778;DHT22;71547;50.146;8.174;2024-02-21T13:27:24;8.80;99.90
1778;DHT22;71547;50.146;8.174;2024-02-21T13:29:53;8.90;99.90
1778;DHT22;71547;50.146;8.174;2024-02-21T13:32:20;8.90;99.90
1778;DHT22;71547;50.146;8.174;2024-02-21T13:34:47;8.90;99.90
1778;DHT22;71547;50.146;8.174;2024-02-21T13:37:15;9.00;99.90
1778;DHT22;71547;50.146;8.174;2024-02-21T13:39:43;9.00;99.90
1778;DHT22;71547;50.146;8.174;2024-02-21T13:42:10;9.00;99.90
1778;DHT22;71547;50.146;8.174;2024-02-21T13:44:37;8.90;99.90
1778;DHT22;71547;50.146;8.174;2024-02-21T13:47:06;8.90;99.90
1778;DHT22;71547;50.146;8.174;2024-02-21T13:49:35;9.00;99.90
1778;DHT22;71547;50.146;8.174;2024-02-21T13:52:02;9.00;99.90
1778;DHT22;71547;50.146;8.174;2024-02-21T13:54:30;8.90;99.90
1778;DHT22;71547;50.146;8.174;2024-02-21T13:56:57;9.00;99.90
1778;DHT22;71547;50.146;8.174;2024-02-21T13:59:24;9.00;99.90
1778;DHT22;71547;50.146;8.174;2024-02-21T14:01:53;9.10;99.90
1778;DHT22;71547;50.146;8.174;2024-02-21T14:04:21;9.10;99.90
1778;DHT22;71547;50.146;8.174;2024-02-21T14:06:49;9.10;99.90
1778;DHT22;71547;50.146;8.174;2024-02-21T14:09:16;9.10;99.90
1778;DHT22;71547;50.146;8.174;2024-02-21T14:11:43;9.10;99.90
1778;DHT22;71547;50.146;8.174;2024-02-21T14:14:12;9.20;99.90
1778;DHT22;71547;50.146;8.174;2024-02-21T14:16:43;9.10;99.90
1778;DHT22;71547;50.146;8.174;2024-02-21T14:19:13;9.20;99.90
1778;DHT22;71547;50.146;8.174;2024-02-21T14:21:41;9.20;99.90
1778;DHT22;71547;50.146;8.174;2024-02-21T14:24:08;9.20;99.90
1778;DHT22;71547;50.146;8.174;2024-02-21T14:26:36;9.20;99.90
1778;DHT22;71547;50.146;8.174;2024-02-21T14:29:04;9.20;99.90
1778;DHT22;71547;50.146;8.174;2024-02-21T14:31:31;9.20;99.90
1778;DHT22;71547;50.146;8.174;2024-02-21T14:33:59;9.20;99.90
1778;DHT22;71547;50.146;8.174;2024-02-21T14:36:26;9.20;99.90
1778;DHT22;71547;50.146;8.174;2024-02-21T14:38:55;9.20;99.90
1778;DHT22;71547;50.146;8.174;2024-02-21T14:41:22;9.20;99.90
1778;DHT22;71547;50.146;8.174;2024-02-21T14:43:51;9.10;99.90
1778;DHT22;71547;50.146;8.174;2024-02-21T14:46:18;9.10;99.90
1778;DHT22;71547;50.146;8.174;2024-02-21T14:48:46;9.10;99.90
1778;DHT22;71547;50.146;8.174;2024-02-21T14:51:13;9.10;99.90
1778;DHT22;71547;50.146;8.174;2024-02-21T14:53:40;9.10;99.90
1778;DHT22;71547;50.146;8.174;2024-02-21T14:56:14;9.10;99.90
1778;DHT22;71547;50.146;8.174;2024-02-21T14:58:41;9.10;99.90
1778;DHT22;71547;50.146;8.174;2024-02-21T15:01:09;9.20;99.90
1778;DHT22;71547;50.146;8.174;2024-02-21T15:03:36;9.10;99.90
1778;DHT22;71547;50.146;8.174;2024-02-21T15:06:21;9.10;99.90
1778;DHT22;71547;50.146;8.174;2024-02-21T15:08:52;9.00;99.90
1778;DHT22;71547;50.146;8.174;2024-02-21T15:11:20;9.10;99.90
1778;DHT22;71547;50.146;8.174;2024-02-21T15:13:49;9.00;99.90
1778;DHT22;71547;50.146;8.174;2024-02-21T15:16:16;9.00;99.90
1778;DHT22;71547;50.146;8.174;2024-02-21T15:18:43;9.00;99.90
1778;DHT22;71547;50.146;8.174;2024-02-21T15:21:11;8.90;99.90
1778;DHT22;71547;50.146;8.174;2024-02-21T15:23:41;8.80;99.90
1778;DHT22;71547;50.146;8.174;2024-02-21T15:26:08;8.80;99.90
1778;DHT22;71547;50.146;8.174;2024-02-21T15:28:36;8.80;99.90
1778;DHT22;71547;50.146;8.174;2024-02-21T15:31:03;8.80;99.90
1778;DHT22;71547;50.146;8.174;2024-02-21T15:33:30;8.70;99.90
1778;DHT22;71547;50.146;8.174;2024-02-21T15:36:00;8.70;99.90
1778;DHT22;71547;50.146;8.174;2024-02-21T15:38:29;8.70;99.90
1778;DHT22;71547;50.146;8.174;2024-02-21T15:40:56;8.70;99.90
1778;DHT22;71547;50.146;8.174;2024-02-21T15:43:24;8.70;99.90
1778;DHT22;71547;50.146;8.174;2024-02-21T15:45:55;8.60;99.90
1778;DHT22;71547;50.146;8.174;2024-02-21T15:48:22;8.60;99.90
1778;DHT22;71547;50.146;8.174;2024-02-21T15:50:52;8.60;99.90
1778;DHT22;71547;50.146;8.174;2024-02-21T15:53:20;8.60;99.90
1778;DHT22;71547;50.146;8.174;2024-02-21T15:55:49;8.50;99.90
1778;DHT22;71547;50.146;8.174;2024-02-21T15:58:16;8.50;99.90
1778;DHT22;71547;50.146;8.174;2024-02-21T16:00:46;8.50;99.90
1778;DHT22;71547;50.146;8.174;2024-02-21T16:03:14;8.60;99.90
1778;DHT22;71547;50.146;8.174;2024-02-21T16:05:42;8.60;99.90
1778;DHT22;71547;50.146;8.174;2024-02-21T16:08:13;8.60;99.90
1778;DHT22;71547;50.146;8.174;2024-02-21T16:10:41;8.60;99.90
1778;DHT22;71547;50.146;8.174;2024-02-21T16:13:08;8.60;99.90